sensor_id;sensor_type;location;lat;lon;timestamp;temperature;humidity
36442;DHT22;64346;50.820;16.274;2023-05-10T00:00:21;10.10;99.90
36442;DHT22;64346;50.820;16.274;2023-05-10T00:03:12;10.00;99.90
36442;DHT22;64346;50.820;16.274;2023-05-10T00:05:42;10.00;99.90
36442;DHT22;64346;50.820;16.274;2023-05-10T00:08:09;10.00;99.90
36442;DHT22;64346;50.820;16.274;2023-05-10T00:10:37;10.00;99.90
36442;DHT22;64346;50.820;16.274;2023-05-10T00:13:04;10.00;99.90
36442;DHT22;64346;50.820;16.274;2023-05-10T00:15:31;10.00;99.90
36442;DHT22;64346;50.820;16.274;2023-05-10T00:17:58;10.00;99.90
36442;DHT22;64346;50.820;16.274;2023-05-10T00:20:29;10.00;99.90
36442;DHT22;64346;50.820;16.274;2023-05-10T00:22:56;9.90;99.90
36442;DHT22;64346;50.820;16.274;2023-05-10T00:25:25;9.90;99.90
36442;DHT22;64346;50.820;16.274;2023-05-10T00:27:52;9.90;99.90
36442;DHT22;64346;50.820;16.274;2023-05-10T00:30:20;9.90;99.90
36442;DHT22;64346;50.820;16.274;2023-05-10T00:32:47;9.90;99.90
36442;DHT22;64346;50.820;16.274;2023-05-10T00:35:15;9.90;99.90
36442;DHT22;64346;50.820;16.274;2023-05-10T00:37:42;9.90;99.90
36442;DHT22;64346;50.820;16.274;2023-05-10T00:40:12;9.90;99.90
36442;DHT22;64346;50.820;16.274;2023-05-10T00:42:39;9.90;99.90
36442;DHT22;64346;50.820;16.274;2023-05-10T00:45:07;9.90;99.90
36442;DHT22;64346;50.820;16.274;2023-05-10T00:47:34;9.90;99.90
36442;DHT22;64346;50.820;16.274;2023-05-10T00:50:02;9.90;99.90
36442;DHT22;64346;50.820;16.274;2023-05-10T00:52:32;9.90;99.90
36442;DHT22;64346;50.820;16.274;2023-05-10T00:55:00;9.90;99.90
36442;DHT22;64346;50.820;16.274;2023-05-10T00:57:27;9.90;99.90
36442;DHT22;64346;50.820;16.274;2023-05-10T00:59:55;9.90;99.90
36442;DHT22;64346;50.820;16.274;2023-05-10T01:02:22;9.90;99.90
36442;DHT22;64346;50.820;16.274;2023-05-10T01:04:49;9.90;99.90
36442;DHT22;64346;50.820;16.274;2023-05-10T01:07:16;9.90;99.90
36442;DHT22;64346;50.820;16.274;2023-05-10T01:09:44;10.00;99.90
36442;DHT22;64346;50.820;16.274;2023-05-10T01:12:11;10.10;99.90
36442;DHT22;64346;50.820;16.274;2023-05-10T01:14:39;10.20;99.90
36442;DHT22;64346;50.820;16.274;2023-05-10T01:17:07;10.20;99.90
36442;DHT22;64346;50.820;16.274;2023-05-10T01:19:35;10.20;99.90
36442;DHT22;64346;50.820;16.274;2023-05-10T01:30:35;10.00;99.90
36442;DHT22;64346;50.820;16.274;2023-05-10T01:33:13;10.00;99.90
36442;DHT22;64346;50.820;16.274;2023-05-10T01:36:03;10.00;99.90
36442;DHT22;64346;50.820;16.274;2023-05-10T01:38:49;9.90;99.90
36442;DHT22;64346;50.820;16.274;2023-05-10T01:41:40;9.90;99.90
36442;DHT22;64346;50.820;16.274;2023-05-10T01:44:16;9.90;99.90
36442;DHT22;64346;50.820;16.274;2023-05-10T01:46:49;9.90;99.90
36442;DHT22;64346;50.820;16.274;2023-05-10T01:49:27;9.90;99.90
36442;DHT22;64346;50.820;16.274;2023-05-10T01:52:03;9.80;99.90
36442;DHT22;64346;50.820;16.274;2023-05-10T01:54:36;9.80;99.90
36442;DHT22;64346;50.820;16.274;2023-05-10T01:57:06;9.80;99.90
36442;DHT22;64346;50.820;16.274;2023-05-10T01:59:35;9.80;99.90
36442;DHT22;64346;50.820;16.274;2023-05-10T02:02:05;9.70;99.90
36442;DHT22;64346;50.820;16.274;2023-05-10T02:04:35;9.80;99.90
36442;DHT22;64346;50.820;16.274;2023-05-10T02:07:05;9.70;99.90
36442;DHT22;64346;50.820;16.274;2023-05-10T02:09:33;9.70;99.90
36442;DHT22;64346;50.820;16.274;2023-05-10T02:12:02;9.80;99.90
36442;DHT22;64346;50.820;16.274;2023-05-10T02:14:34;9.80;99.90
36442;DHT22;64346;50.820;16.274;2023-05-10T02:17:06;9.70;99.90
36442;DHT22;64346;50.820;16.274;2023-05-10T02:19:38;9.80;99.90
36442;DHT22;64346;50.820;16.274;2023-05-10T02:22:06;9.70;99.90
36442;DHT22;64346;50.820;16.274;2023-05-10T02:24:36;9.80;99.90
36442;DHT22;64346;50.820;16.274;2023-05-10T02:27:04;9.70;99.90
36442;DHT22;64346;50.820;16.274;2023-05-10T02:29:35;9.70;99.90
36442;DHT22;64346;50.820;16.274;2023-05-10T02:32:04;9.70;99.90
36442;DHT22;64346;50.820;16.274;2023-05-10T02:34:33;9.70;99.90
36442;DHT22;64346;50.820;16.274;2023-05-10T02:37:02;9.70;99.90
36442;DHT22;64346;50.820;16.274;2023-05-10T02:39:30;9.60;99.90
36442;DHT22;64346;50.820;16.274;2023-05-10T02:42:00;9.60;99.90
36442;DHT22;64346;50.820;16.274;2023-05-10T02:44:34;9.70;99.90
36442;DHT22;64346;50.820;16.274;2023-05-10T02:47:05;9.70;99.90
36442;DHT22;64346;50.820;16.274;2023-05-10T02:49:35;9.70;99.90
36442;DHT22;64346;50.820;16.274;2023-05-10T02:52:05;9.70;99.90
36442;DHT22;64346;50.820;16.274;2023-05-10T02:54:39;9.70;99.90
36442;DHT22;64346;50.820;16.274;2023-05-10T02:57:16;9.60;99.90
36442;DHT22;64346;50.820;16.274;2023-05-10T02:59:43;9.60;99.90
36442;DHT22;64346;50.820;16.274;2023-05-10T03:02:13;9.60;99.90
36442;DHT22;64346;50.820;16.274;2023-05-10T03:04:40;9.60;99.90
36442;DHT22;64346;50.820;16.274;2023-05-10T03:07:12;9.60;99.90
36442;DHT22;64346;50.820;16.274;2023-05-10T03:09:40;9.60;99.90
36442;DHT22;64346;50.820;16.274;2023-05-10T03:12:31;9.60;99.90
36442;DHT22;64346;50.820;16.274;2023-05-10T03:20:49;9.60;99.90
36442;DHT22;64346;50.820;16.274;2023-05-10T03:25:47;9.70;99.90
36442;DHT22;64346;50.820;16.274;2023-05-10T03:28:16;9.80;99.90
36442;DHT22;64346;50.820;16.274;2023-05-10T03:30:44;9.90;99.90
36442;DHT22;64346;50.820;16.274;2023-05-10T03:33:17;10.00;99.90
36442;DHT22;64346;50.820;16.274;2023-05-10T03:35:47;10.00;99.90
36442;DHT22;64346;50.820;16.274;2023-05-10T03:38:15;10.10;99.90
36442;DHT22;64346;50.820;16.274;2023-05-10T03:40:42;10.20;99.90
36442;DHT22;64346;50.820;16.274;2023-05-10T03:43:09;10.30;99.90
36442;DHT22;64346;50.820;16.274;2023-05-10T03:45:36;10.30;99.90
36442;DHT22;64346;50.820;16.274;2023-05-10T03:48:06;10.50;99.90
36442;DHT22;64346;50.820;16.274;2023-05-10T03:50:36;10.70;99.90
36442;DHT22;64346;50.820;16.274;2023-05-10T03:53:03;10.80;99.90
36442;DHT22;64346;50.820;16.274;2023-05-10T03:55:30;11.00;99.90
36442;DHT22;64346;50.820;16.274;2023-05-10T03:57:57;11.20;99.80
36442;DHT22;64346;50.820;16.274;2023-05-10T04:00:25;11.40;99.30
36442;DHT22;64346;50.820;16.274;2023-05-10T04:02:52;11.60;98.90
36442;DHT22;64346;50.820;16.274;2023-05-10T04:05:19;11.70;98.60
36442;DHT22;64346;50.820;16.274;2023-05-10T04:07:46;11.90;98.20
36442;DHT22;64346;50.820;16.274;2023-05-10T04:10:14;12.00;97.70
36442;DHT22;64346;50.820;16.274;2023-05-10T04:12:41;12.20;97.30
36442;DHT22;64346;50.820;16.274;2023-05-10T04:15:09;12.30;97.00
36442;DHT22;64346;50.820;16.274;2023-05-10T04:17:36;12.40;96.70
36442;DHT22;64346;50.820;16.274;2023-05-10T04:20:06;12.40;96.60
36442;DHT22;64346;50.820;16.274;2023-05-10T04:22:34;12.70;96.40
36442;DHT22;64346;50.820;16.274;2023-05-10T04:25:01;12.90;96.00
36442;DHT22;64346;50.820;16.274;2023-05-10T04:27:28;13.20;95.30
36442;DHT22;64346;50.820;16.274;2023-05-10T04:29:57;13.40;94.80
36442;DHT22;64346;50.820;16.274;2023-05-10T04:32:25;13.60;94.50
36442;DHT22;64346;50.820;16.274;2023-05-10T04:34:52;13.70;94.20
36442;DHT22;64346;50.820;16.274;2023-05-10T04:37:19;13.90;94.00
36442;DHT22;64346;50.820;16.274;2023-05-10T04:39:46;14.20;93.50
36442;DHT22;64346;50.820;16.274;2023-05-10T04:42:14;14.50;92.90
36442;DHT22;64346;50.820;16.274;2023-05-10T04:44:41;14.80;92.30
36442;DHT22;64346;50.820;16.274;2023-05-10T04:47:08;15.10;91.80
36442;DHT22;64346;50.820;16.274;2023-05-10T04:49:40;15.30;91.40
36442;DHT22;64346;50.820;16.274;2023-05-10T04:52:10;15.20;91.00
36442;DHT22;64346;50.820;16.274;2023-05-10T04:54:40;15.40;91.10
36442;DHT22;64346;50.820;16.274;2023-05-10T04:57:07;15.50;90.40
36442;DHT22;64346;50.820;16.274;2023-05-10T04:59:36;15.70;90.20
36442;DHT22;64346;50.820;16.274;2023-05-10T05:02:05;15.90;90.00
36442;DHT22;64346;50.820;16.274;2023-05-10T05:04:34;16.00;89.60
36442;DHT22;64346;50.820;16.274;2023-05-10T05:07:02;16.20;89.20
36442;DHT22;64346;50.820;16.274;2023-05-10T05:09:29;16.50;87.80
36442;DHT22;64346;50.820;16.274;2023-05-10T05:11:57;16.90;87.00
36442;DHT22;64346;50.820;16.274;2023-05-10T05:14:26;17.10;85.70
36442;DHT22;64346;50.820;16.274;2023-05-10T05:16:54;16.80;85.80
36442;DHT22;64346;50.820;16.274;2023-05-10T05:19:21;16.70;85.90
36442;DHT22;64346;50.820;16.274;2023-05-10T05:21:53;17.00;85.50
36442;DHT22;64346;50.820;16.274;2023-05-10T05:24:22;17.00;85.80
36442;DHT22;64346;50.820;16.274;2023-05-10T05:26:52;17.40;84.90
36442;DHT22;64346;50.820;16.274;2023-05-10T05:29:19;17.60;84.00
36442;DHT22;64346;50.820;16.274;2023-05-10T05:31:46;18.00;82.70
36442;DHT22;64346;50.820;16.274;2023-05-10T05:34:13;18.00;81.80
36442;DHT22;64346;50.820;16.274;2023-05-10T05:36:41;18.00;82.00
36442;DHT22;64346;50.820;16.274;2023-05-10T05:39:08;18.50;80.90
36442;DHT22;64346;50.820;16.274;2023-05-10T05:41:35;18.80;79.80
36442;DHT22;64346;50.820;16.274;2023-05-10T05:44:02;19.70;78.20
36442;DHT22;64346;50.820;16.274;2023-05-10T05:46:30;20.20;76.10
36442;DHT22;64346;50.820;16.274;2023-05-10T05:48:59;20.90;74.00
36442;DHT22;64346;50.820;16.274;2023-05-10T05:51:27;21.40;72.60
36442;DHT22;64346;50.820;16.274;2023-05-10T05:53:54;22.10;70.20
36442;DHT22;64346;50.820;16.274;2023-05-10T05:56:21;23.10;68.00
36442;DHT22;64346;50.820;16.274;2023-05-10T05:58:48;24.50;64.40
36442;DHT22;64346;50.820;16.274;2023-05-10T06:01:18;26.30;60.90
36442;DHT22;64346;50.820;16.274;2023-05-10T06:03:45;27.40;57.70
36442;DHT22;64346;50.820;16.274;2023-05-10T06:06:13;28.10;55.70
36442;DHT22;64346;50.820;16.274;2023-05-10T06:08:40;27.70;54.70
36442;DHT22;64346;50.820;16.274;2023-05-10T06:11:07;26.90;54.90
36442;DHT22;64346;50.820;16.274;2023-05-10T06:13:34;28.40;53.30
36442;DHT22;64346;50.820;16.274;2023-05-10T06:16:02;29.20;51.90
36442;DHT22;64346;50.820;16.274;2023-05-10T06:18:32;29.10;51.50
36442;DHT22;64346;50.820;16.274;2023-05-10T06:21:02;29.50;50.70
36442;DHT22;64346;50.820;16.274;2023-05-10T06:23:29;29.90;50.00
36442;DHT22;64346;50.820;16.274;2023-05-10T06:25:56;30.70;49.50
36442;DHT22;64346;50.820;16.274;2023-05-10T06:28:23;31.20;48.30
36442;DHT22;64346;50.820;16.274;2023-05-10T06:30:51;31.70;47.90
36442;DHT22;64346;50.820;16.274;2023-05-10T06:33:18;31.70;47.30
36442;DHT22;64346;50.820;16.274;2023-05-10T06:35:45;32.50;46.30
36442;DHT22;64346;50.820;16.274;2023-05-10T06:38:12;33.30;46.00
36442;DHT22;64346;50.820;16.274;2023-05-10T06:40:43;34.40;44.80
36442;DHT22;64346;50.820;16.274;2023-05-10T06:43:10;34.30;44.20
36442;DHT22;64346;50.820;16.274;2023-05-10T06:45:37;33.30;44.50
36442;DHT22;64346;50.820;16.274;2023-05-10T06:48:07;33.70;44.30
36442;DHT22;64346;50.820;16.274;2023-05-10T06:50:35;32.10;44.70
36442;DHT22;64346;50.820;16.274;2023-05-10T06:53:06;32.40;44.80
36442;DHT22;64346;50.820;16.274;2023-05-10T06:55:34;30.90;46.10
36442;DHT22;64346;50.820;16.274;2023-05-10T06:58:01;31.70;45.60
36442;DHT22;64346;50.820;16.274;2023-05-10T07:00:30;32.40;45.00
36442;DHT22;64346;50.820;16.274;2023-05-10T07:02:58;31.80;45.30
36442;DHT22;64346;50.820;16.274;2023-05-10T07:05:25;32.20;45.40
36442;DHT22;64346;50.820;16.274;2023-05-10T07:07:52;32.10;45.00
36442;DHT22;64346;50.820;16.274;2023-05-10T07:10:20;31.90;45.10
36442;DHT22;64346;50.820;16.274;2023-05-10T07:12:49;31.90;45.40
36442;DHT22;64346;50.820;16.274;2023-05-10T07:15:17;32.10;44.50
36442;DHT22;64346;50.820;16.274;2023-05-10T07:17:44;32.30;44.70
36442;DHT22;64346;50.820;16.274;2023-05-10T07:20:12;31.00;45.30
36442;DHT22;64346;50.820;16.274;2023-05-10T07:22:39;31.40;46.70
36442;DHT22;64346;50.820;16.274;2023-05-10T07:25:07;32.30;44.50
36442;DHT22;64346;50.820;16.274;2023-05-10T07:27:34;32.70;44.60
36442;DHT22;64346;50.820;16.274;2023-05-10T07:30:02;33.90;43.80
36442;DHT22;64346;50.820;16.274;2023-05-10T07:32:31;34.50;43.30
36442;DHT22;64346;50.820;16.274;2023-05-10T07:35:01;34.60;43.30
36442;DHT22;64346;50.820;16.274;2023-05-10T07:37:28;34.80;42.70
36442;DHT22;64346;50.820;16.274;2023-05-10T07:39:56;32.70;43.90
36442;DHT22;64346;50.820;16.274;2023-05-10T07:42:23;33.00;44.40
36442;DHT22;64346;50.820;16.274;2023-05-10T07:44:50;32.70;44.00
36442;DHT22;64346;50.820;16.274;2023-05-10T07:47:17;33.10;43.70
36442;DHT22;64346;50.820;16.274;2023-05-10T07:49:45;32.60;44.60
36442;DHT22;64346;50.820;16.274;2023-05-10T07:52:12;32.90;44.30
36442;DHT22;64346;50.820;16.274;2023-05-10T07:54:39;32.10;44.40
36442;DHT22;64346;50.820;16.274;2023-05-10T07:57:06;33.30;44.40
36442;DHT22;64346;50.820;16.274;2023-05-10T07:59:34;33.60;43.50
36442;DHT22;64346;50.820;16.274;2023-05-10T08:02:03;33.40;43.70
36442;DHT22;64346;50.820;16.274;2023-05-10T08:04:31;33.50;43.50
36442;DHT22;64346;50.820;16.274;2023-05-10T08:06:58;33.80;43.00
36442;DHT22;64346;50.820;16.274;2023-05-10T08:09:25;32.40;43.90
36442;DHT22;64346;50.820;16.274;2023-05-10T08:11:52;30.30;45.70
36442;DHT22;64346;50.820;16.274;2023-05-10T08:14:20;30.50;45.60
36442;DHT22;64346;50.820;16.274;2023-05-10T08:16:47;29.50;46.70
36442;DHT22;64346;50.820;16.274;2023-05-10T08:19:14;28.50;47.40
36442;DHT22;64346;50.820;16.274;2023-05-10T08:21:41;29.60;46.60
36442;DHT22;64346;50.820;16.274;2023-05-10T08:24:09;29.30;47.00
36442;DHT22;64346;50.820;16.274;2023-05-10T08:26:38;29.60;46.30
36442;DHT22;64346;50.820;16.274;2023-05-10T08:29:05;28.30;46.50
36442;DHT22;64346;50.820;16.274;2023-05-10T08:31:32;28.20;47.90
36442;DHT22;64346;50.820;16.274;2023-05-10T08:34:02;30.20;45.70
36442;DHT22;64346;50.820;16.274;2023-05-10T08:36:29;31.10;45.00
36442;DHT22;64346;50.820;16.274;2023-05-10T08:39:01;31.60;44.30
36442;DHT22;64346;50.820;16.274;2023-05-10T08:41:30;31.60;43.50
36442;DHT22;64346;50.820;16.274;2023-05-10T08:44:02;32.10;44.10
36442;DHT22;64346;50.820;16.274;2023-05-10T08:46:33;32.90;42.60
36442;DHT22;64346;50.820;16.274;2023-05-10T08:49:02;32.70;42.20
36442;DHT22;64346;50.820;16.274;2023-05-10T08:51:35;31.50;42.50
36442;DHT22;64346;50.820;16.274;2023-05-10T08:54:04;29.20;44.60
36442;DHT22;64346;50.820;16.274;2023-05-10T08:56:33;28.70;46.30
36442;DHT22;64346;50.820;16.274;2023-05-10T08:59:03;29.80;45.70
36442;DHT22;64346;50.820;16.274;2023-05-10T09:01:31;29.10;44.60
36442;DHT22;64346;50.820;16.274;2023-05-10T09:04:01;29.60;45.20
36442;DHT22;64346;50.820;16.274;2023-05-10T09:06:29;28.30;45.30
36442;DHT22;64346;50.820;16.274;2023-05-10T09:08:56;26.80;47.60
36442;DHT22;64346;50.820;16.274;2023-05-10T09:11:23;26.20;48.90
36442;DHT22;64346;50.820;16.274;2023-05-10T09:13:53;26.00;48.90
36442;DHT22;64346;50.820;16.274;2023-05-10T09:16:21;27.00;48.20
36442;DHT22;64346;50.820;16.274;2023-05-10T09:18:51;26.40;47.40
36442;DHT22;64346;50.820;16.274;2023-05-10T09:21:20;24.60;51.30
36442;DHT22;64346;50.820;16.274;2023-05-10T09:23:48;23.00;54.80
36442;DHT22;64346;50.820;16.274;2023-05-10T09:26:15;23.00;51.90
36442;DHT22;64346;50.820;16.274;2023-05-10T09:28:56;23.70;50.90
36442;DHT22;64346;50.820;16.274;2023-05-10T09:31:23;24.30;50.50
36442;DHT22;64346;50.820;16.274;2023-05-10T09:33:51;24.10;50.60
36442;DHT22;64346;50.820;16.274;2023-05-10T09:36:18;24.10;50.40
36442;DHT22;64346;50.820;16.274;2023-05-10T09:38:50;24.20;51.50
36442;DHT22;64346;50.820;16.274;2023-05-10T09:41:27;24.60;49.50
36442;DHT22;64346;50.820;16.274;2023-05-10T09:43:57;24.00;50.20
36442;DHT22;64346;50.820;16.274;2023-05-10T09:46:24;23.50;50.80
36442;DHT22;64346;50.820;16.274;2023-05-10T09:48:54;22.80;52.30
36442;DHT22;64346;50.820;16.274;2023-05-10T09:51:22;22.30;53.80
36442;DHT22;64346;50.820;16.274;2023-05-10T09:54:12;21.70;54.90
36442;DHT22;64346;50.820;16.274;2023-05-10T09:56:40;21.00;55.50
36442;DHT22;64346;50.820;16.274;2023-05-10T09:59:12;20.70;56.60
36442;DHT22;64346;50.820;16.274;2023-05-10T10:01:39;20.20;57.40
36442;DHT22;64346;50.820;16.274;2023-05-10T10:04:08;20.10;57.90
36442;DHT22;64346;50.820;16.274;2023-05-10T10:06:40;20.30;57.60
36442;DHT22;64346;50.820;16.274;2023-05-10T10:09:08;20.00;58.10
36442;DHT22;64346;50.820;16.274;2023-05-10T10:11:38;20.40;58.10
36442;DHT22;64346;50.820;16.274;2023-05-10T10:14:06;20.60;58.60
36442;DHT22;64346;50.820;16.274;2023-05-10T10:16:33;20.90;57.60
36442;DHT22;64346;50.820;16.274;2023-05-10T10:19:00;20.90;57.60
36442;DHT22;64346;50.820;16.274;2023-05-10T10:21:28;20.40;57.20
36442;DHT22;64346;50.820;16.274;2023-05-10T10:23:58;20.40;58.10
36442;DHT22;64346;50.820;16.274;2023-05-10T10:26:25;20.50;58.20
36442;DHT22;64346;50.820;16.274;2023-05-10T10:34:30;20.60;58.90
36442;DHT22;64346;50.820;16.274;2023-05-10T10:37:04;20.50;58.80
36442;DHT22;64346;50.820;16.274;2023-05-10T10:39:32;20.30;59.00
36442;DHT22;64346;50.820;16.274;2023-05-10T10:41:59;20.60;58.80
36442;DHT22;64346;50.820;16.274;2023-05-10T10:44:37;20.70;58.70
36442;DHT22;64346;50.820;16.274;2023-05-10T10:52:47;21.10;57.10
36442;DHT22;64346;50.820;16.274;2023-05-10T10:55:18;20.60;58.00
36442;DHT22;64346;50.820;16.274;2023-05-10T10:57:49;21.00;58.20
36442;DHT22;64346;50.820;16.274;2023-05-10T11:00:28;20.90;57.90
36442;DHT22;64346;50.820;16.274;2023-05-10T11:05:39;20.50;58.80
36442;DHT22;64346;50.820;16.274;2023-05-10T11:08:19;20.20;59.50
36442;DHT22;64346;50.820;16.274;2023-05-10T11:13:33;20.10;60.50
36442;DHT22;64346;50.820;16.274;2023-05-10T11:16:11;20.10;59.10
36442;DHT22;64346;50.820;16.274;2023-05-10T11:18:39;20.10;60.00
36442;DHT22;64346;50.820;16.274;2023-05-10T11:21:09;20.10;60.50
36442;DHT22;64346;50.820;16.274;2023-05-10T11:26:09;19.90;62.40
36442;DHT22;64346;50.820;16.274;2023-05-10T11:28:48;20.20;61.90
36442;DHT22;64346;50.820;16.274;2023-05-10T11:31:19;20.00;62.30
36442;DHT22;64346;50.820;16.274;2023-05-10T11:33:49;19.90;61.70
36442;DHT22;64346;50.820;16.274;2023-05-10T11:36:19;20.00;62.30
36442;DHT22;64346;50.820;16.274;2023-05-10T11:38:49;20.00;62.00
36442;DHT22;64346;50.820;16.274;2023-05-10T11:41:18;19.80;62.20
36442;DHT22;64346;50.820;16.274;2023-05-10T11:43:55;19.70;61.60
36442;DHT22;64346;50.820;16.274;2023-05-10T11:46:24;19.60;62.70
36442;DHT22;64346;50.820;16.274;2023-05-10T11:48:57;19.40;63.00
36442;DHT22;64346;50.820;16.274;2023-05-10T11:51:25;19.40;63.70
36442;DHT22;64346;50.820;16.274;2023-05-10T11:53:56;19.50;63.60
36442;DHT22;64346;50.820;16.274;2023-05-10T11:56:27;19.80;63.60
36442;DHT22;64346;50.820;16.274;2023-05-10T11:58:56;19.80;63.50
36442;DHT22;64346;50.820;16.274;2023-05-10T12:01:25;20.00;63.20
36442;DHT22;64346;50.820;16.274;2023-05-10T12:03:54;19.90;62.60
36442;DHT22;64346;50.820;16.274;2023-05-10T12:06:22;19.50;63.40
36442;DHT22;64346;50.820;16.274;2023-05-10T12:08:49;19.10;64.00
36442;DHT22;64346;50.820;16.274;2023-05-10T12:11:19;19.30;64.10
36442;DHT22;64346;50.820;16.274;2023-05-10T12:13:46;19.00;64.10
36442;DHT22;64346;50.820;16.274;2023-05-10T12:16:15;18.90;64.60
36442;DHT22;64346;50.820;16.274;2023-05-10T12:18:46;18.90;64.60
36442;DHT22;64346;50.820;16.274;2023-05-10T12:21:15;19.00;65.60
36442;DHT22;64346;50.820;16.274;2023-05-10T12:23:45;19.10;64.80
36442;DHT22;64346;50.820;16.274;2023-05-10T12:26:13;19.20;63.80
36442;DHT22;64346;50.820;16.274;2023-05-10T12:28:40;19.00;64.20
36442;DHT22;64346;50.820;16.274;2023-05-10T12:31:08;18.60;64.90
36442;DHT22;64346;50.820;16.274;2023-05-10T12:33:45;18.50;65.50
36442;DHT22;64346;50.820;16.274;2023-05-10T12:36:15;18.70;65.20
36442;DHT22;64346;50.820;16.274;2023-05-10T12:38:44;19.00;65.60
36442;DHT22;64346;50.820;16.274;2023-05-10T12:41:14;19.30;64.50
36442;DHT22;64346;50.820;16.274;2023-05-10T12:43:44;19.50;64.40
36442;DHT22;64346;50.820;16.274;2023-05-10T12:46:13;19.60;63.80
36442;DHT22;64346;50.820;16.274;2023-05-10T12:48:42;19.30;63.80
36442;DHT22;64346;50.820;16.274;2023-05-10T12:51:10;19.20;64.00
36442;DHT22;64346;50.820;16.274;2023-05-10T12:53:41;19.10;64.40
36442;DHT22;64346;50.820;16.274;2023-05-10T12:56:12;19.20;64.60
36442;DHT22;64346;50.820;16.274;2023-05-10T12:58:39;19.30;64.40
36442;DHT22;64346;50.820;16.274;2023-05-10T13:01:06;19.10;64.30
36442;DHT22;64346;50.820;16.274;2023-05-10T13:03:34;18.80;65.30
36442;DHT22;64346;50.820;16.274;2023-05-10T13:06:01;18.80;65.40
36442;DHT22;64346;50.820;16.274;2023-05-10T13:08:31;19.00;65.40
36442;DHT22;64346;50.820;16.274;2023-05-10T13:11:00;19.10;64.10
36442;DHT22;64346;50.820;16.274;2023-05-10T13:13:27;18.90;64.40
36442;DHT22;64346;50.820;16.274;2023-05-10T13:15:55;18.70;64.90
36442;DHT22;64346;50.820;16.274;2023-05-10T13:18:22;18.70;64.90
36442;DHT22;64346;50.820;16.274;2023-05-10T13:20:49;18.70;65.20
36442;DHT22;64346;50.820;16.274;2023-05-10T13:23:16;18.80;65.20
36442;DHT22;64346;50.820;16.274;2023-05-10T13:25:49;18.90;64.20
36442;DHT22;64346;50.820;16.274;2023-05-10T13:28:19;19.00;64.00
36442;DHT22;64346;50.820;16.274;2023-05-10T13:30:47;19.00;63.60
36442;DHT22;64346;50.820;16.274;2023-05-10T13:33:16;19.00;64.20
36442;DHT22;64346;50.820;16.274;2023-05-10T13:35:44;19.20;65.10
36442;DHT22;64346;50.820;16.274;2023-05-10T13:38:14;19.20;64.40
36442;DHT22;64346;50.820;16.274;2023-05-10T13:40:41;19.00;64.60
36442;DHT22;64346;50.820;16.274;2023-05-10T13:43:11;18.80;64.80
36442;DHT22;64346;50.820;16.274;2023-05-10T13:45:38;18.70;65.00
36442;DHT22;64346;50.820;16.274;2023-05-10T13:48:11;18.80;65.00
36442;DHT22;64346;50.820;16.274;2023-05-10T13:50:40;18.80;65.00
36442;DHT22;64346;50.820;16.274;2023-05-10T13:53:08;18.60;65.60
36442;DHT22;64346;50.820;16.274;2023-05-10T13:55:38;18.50;65.70
36442;DHT22;64346;50.820;16.274;2023-05-10T13:58:08;18.50;65.70
36442;DHT22;64346;50.820;16.274;2023-05-10T14:00:37;18.30;66.10
36442;DHT22;64346;50.820;16.274;2023-05-10T14:03:04;18.20;67.30
36442;DHT22;64346;50.820;16.274;2023-05-10T14:05:32;18.00;66.20
36442;DHT22;64346;50.820;16.274;2023-05-10T14:07:59;17.80;66.90
36442;DHT22;64346;50.820;16.274;2023-05-10T14:10:27;17.90;67.40
36442;DHT22;64346;50.820;16.274;2023-05-10T14:12:54;18.00;66.90
36442;DHT22;64346;50.820;16.274;2023-05-10T14:15:22;17.90;67.10
36442;DHT22;64346;50.820;16.274;2023-05-10T14:17:49;17.70;67.60
36442;DHT22;64346;50.820;16.274;2023-05-10T14:20:17;17.70;67.80
36442;DHT22;64346;50.820;16.274;2023-05-10T14:22:46;17.80;67.90
36442;DHT22;64346;50.820;16.274;2023-05-10T14:25:14;17.70;68.40
36442;DHT22;64346;50.820;16.274;2023-05-10T14:27:42;17.80;68.90
36442;DHT22;64346;50.820;16.274;2023-05-10T14:30:14;17.70;68.80
36442;DHT22;64346;50.820;16.274;2023-05-10T14:32:44;17.80;68.50
36442;DHT22;64346;50.820;16.274;2023-05-10T14:35:14;18.00;67.90
36442;DHT22;64346;50.820;16.274;2023-05-10T14:37:45;18.10;67.60
36442;DHT22;64346;50.820;16.274;2023-05-10T14:40:12;18.20;67.80
36442;DHT22;64346;50.820;16.274;2023-05-10T14:42:40;18.20;68.30
36442;DHT22;64346;50.820;16.274;2023-05-10T14:45:07;18.20;67.60
36442;DHT22;64346;50.820;16.274;2023-05-10T14:47:37;18.00;67.80
36442;DHT22;64346;50.820;16.274;2023-05-10T14:50:07;18.10;67.20
36442;DHT22;64346;50.820;16.274;2023-05-10T14:52:35;18.00;67.20
36442;DHT22;64346;50.820;16.274;2023-05-10T14:55:05;18.10;67.40
36442;DHT22;64346;50.820;16.274;2023-05-10T14:57:32;18.10;67.20
36442;DHT22;64346;50.820;16.274;2023-05-10T15:00:01;18.20;67.20
36442;DHT22;64346;50.820;16.274;2023-05-10T15:02:30;18.30;66.90
36442;DHT22;64346;50.820;16.274;2023-05-10T15:05:00;18.20;66.70
36442;DHT22;64346;50.820;16.274;2023-05-10T15:07:28;18.00;67.40
36442;DHT22;64346;50.820;16.274;2023-05-10T15:09:55;18.00;68.00
36442;DHT22;64346;50.820;16.274;2023-05-10T15:12:25;18.00;67.60
36442;DHT22;64346;50.820;16.274;2023-05-10T15:14:53;18.00;68.10
36442;DHT22;64346;50.820;16.274;2023-05-10T15:17:20;18.10;67.60
36442;DHT22;64346;50.820;16.274;2023-05-10T15:19:47;18.10;67.70
36442;DHT22;64346;50.820;16.274;2023-05-10T15:22:15;18.10;67.20
36442;DHT22;64346;50.820;16.274;2023-05-10T15:24:42;18.00;68.10
36442;DHT22;64346;50.820;16.274;2023-05-10T15:27:10;17.90;68.70
36442;DHT22;64346;50.820;16.274;2023-05-10T15:29:39;17.90;68.50
36442;DHT22;64346;50.820;16.274;2023-05-10T15:32:19;17.80;69.10
36442;DHT22;64346;50.820;16.274;2023-05-10T15:34:49;17.70;69.10
36442;DHT22;64346;50.820;16.274;2023-05-10T15:37:16;17.70;69.30
36442;DHT22;64346;50.820;16.274;2023-05-10T15:39:44;17.80;69.40
36442;DHT22;64346;50.820;16.274;2023-05-10T15:42:14;17.90;68.50
36442;DHT22;64346;50.820;16.274;2023-05-10T15:44:41;18.00;68.10
36442;DHT22;64346;50.820;16.274;2023-05-10T15:47:08;17.90;68.40
36442;DHT22;64346;50.820;16.274;2023-05-10T15:49:37;17.90;68.90
36442;DHT22;64346;50.820;16.274;2023-05-10T15:52:04;17.90;69.20
36442;DHT22;64346;50.820;16.274;2023-05-10T15:54:37;17.90;69.10
36442;DHT22;64346;50.820;16.274;2023-05-10T15:57:05;17.80;69.50
36442;DHT22;64346;50.820;16.274;2023-05-10T15:59:32;17.80;69.20
36442;DHT22;64346;50.820;16.274;2023-05-10T16:02:00;17.80;69.70
36442;DHT22;64346;50.820;16.274;2023-05-10T16:04:27;17.70;70.20